createdAt,value
2018-01-12T00:00:23.416Z,101227.98
2018-01-12T00:01:25.881Z,101222.20
2018-01-12T00:02:28.342Z,101223.51
2018-01-12T00:03:30.848Z,101225.78
2018-01-12T00:04:33.342Z,101228.86
2018-01-12T00:05:35.837Z,101232.53
2018-01-12T00:06:38.302Z,101229.02
2018-01-12T00:07:40.780Z,101226.84
2018-01-12T00:08:43.275Z,101223.84
2018-01-12T00:09:45.752Z,101228.09
2018-01-12T00:10:48.214Z,101230.39
2018-01-12T00:11:50.671Z,101228.24
2018-01-12T00:12:53.148Z,101232.34
2018-01-12T00:13:55.626Z,101235.69
2018-01-12T00:14:58.113Z,101237.57
2018-01-12T00:16:00.583Z,101237.00
2018-01-12T00:17:03.050Z,101241.67
2018-01-12T00:18:05.510Z,101237.86
2018-01-12T00:19:07.991Z,101244.63
2018-01-12T00:20:10.464Z,101238.95
2018-01-12T00:21:12.940Z,101242.95
2018-01-12T00:22:15.420Z,101241.91
2018-01-12T00:23:17.900Z,101242.70
2018-01-12T00:24:20.390Z,101247.64
2018-01-12T00:25:22.859Z,101237.42
2018-01-12T00:26:25.340Z,101242.07
2018-01-12T00:27:27.807Z,101238.56
2018-01-12T00:28:30.289Z,101240.55
2018-01-12T00:29:32.788Z,101242.23
2018-01-12T00:30:35.266Z,101245.22
2018-01-12T00:31:37.723Z,101244.27
2018-01-12T00:32:40.185Z,101246.78
2018-01-12T00:33:42.671Z,101246.02
2018-01-12T00:34:45.168Z,101248.05
2018-01-12T00:35:47.629Z,101246.90
2018-01-12T00:36:50.086Z,101242.30
2018-01-12T00:37:52.568Z,101240.48
2018-01-12T00:38:55.030Z,101249.50
2018-01-12T00:39:57.540Z,101244.58
2018-01-12T00:41:00.026Z,101248.47
2018-01-12T00:42:02.489Z,101248.64
2018-01-12T00:43:05.012Z,101256.31
2018-01-12T00:44:07.474Z,101251.84
2018-01-12T00:45:09.977Z,101249.83
2018-01-12T00:46:12.451Z,101242.23
2018-01-12T00:47:14.928Z,101243.71
2018-01-12T00:48:17.394Z,101244.58
2018-01-12T00:49:19.858Z,101240.01
2018-01-12T00:50:22.338Z,101241.98
2018-01-12T00:51:24.816Z,101240.97
2018-01-12T00:52:27.292Z,101240.34
2018-01-12T00:53:29.776Z,101236.49
2018-01-12T00:54:32.238Z,101243.46
2018-01-12T00:55:34.718Z,101244.33
2018-01-12T00:56:37.187Z,101242.61
2018-01-12T00:57:39.660Z,101245.31
2018-01-12T00:58:42.134Z,101243.18
2018-01-12T00:59:44.608Z,101238.17
2018-01-12T01:00:47.105Z,101239.17
2018-01-12T01:01:49.588Z,101246.14
2018-01-12T01:02:52.058Z,101247.07
2018-01-12T01:03:54.522Z,101249.41
2018-01-12T01:04:57.005Z,101245.47
2018-01-12T01:05:59.506Z,101239.31
2018-01-12T01:07:01.974Z,101238.75
2018-01-12T01:08:04.434Z,101241.86
2018-01-12T01:09:06.990Z,101250.40
2018-01-12T01:10:09.426Z,101254.22
2018-01-12T01:11:11.902Z,101254.67
2018-01-12T01:12:14.366Z,101254.52
2018-01-12T01:13:16.830Z,101257.56
2018-01-12T01:14:19.294Z,101254.31
2018-01-12T01:15:21.768Z,101262.97
2018-01-12T01:16:24.250Z,101259.24
2018-01-12T01:17:26.714Z,101262.23
2018-01-12T01:18:29.177Z,101263.06
2018-01-12T01:19:31.760Z,101261.00
2018-01-12T01:20:34.260Z,101260.00
2018-01-12T01:21:36.753Z,101263.61
2018-01-12T01:22:39.218Z,101267.13
2018-01-12T01:23:41.697Z,101260.08
2018-01-12T01:24:44.154Z,101260.32
2018-01-12T01:25:46.636Z,101264.03
2018-01-12T01:26:49.144Z,101265.26
2018-01-12T01:27:51.621Z,101269.63
2018-01-12T01:28:54.129Z,101264.37
2018-01-12T01:29:56.602Z,101270.15
2018-01-12T01:30:59.079Z,101266.73
2018-01-12T01:32:01.576Z,101264.56
2018-01-12T01:33:04.033Z,101271.02
2018-01-12T01:34:06.493Z,101274.51
2018-01-12T01:35:08.958Z,101273.94
2018-01-12T01:36:11.432Z,101272.72
2018-01-12T01:37:13.926Z,101273.16
2018-01-12T01:38:16.386Z,101274.95
2018-01-12T01:39:18.862Z,101277.28
2018-01-12T01:40:21.326Z,101279.70
2018-01-12T01:41:23.782Z,101280.73
2018-01-12T01:42:26.282Z,101283.98
2018-01-12T01:43:28.769Z,101290.30
2018-01-12T01:44:31.225Z,101283.77
2018-01-12T01:45:33.704Z,101294.92
2018-01-12T01:46:36.165Z,101287.20
2018-01-12T01:47:38.669Z,101295.78
2018-01-12T01:48:41.933Z,101290.49
2018-01-12T01:49:44.408Z,101292.13
2018-01-12T01:50:46.893Z,101296.09
2018-01-12T01:51:49.359Z,101295.53
2018-01-12T01:52:51.856Z,101296.66
2018-01-12T01:53:54.336Z,101298.67
2018-01-12T01:54:56.815Z,101300.38
2018-01-12T01:55:59.296Z,101299.50
2018-01-12T01:57:01.778Z,101295.80
2018-01-12T01:58:04.254Z,101299.43
2018-01-12T01:59:06.722Z,101301.06
2018-01-12T02:00:09.239Z,101301.61
2018-01-12T02:01:11.701Z,101306.70
2018-01-12T02:02:14.204Z,101302.92
2018-01-12T02:03:16.683Z,101301.76
2018-01-12T02:04:19.159Z,101302.75
2018-01-12T02:05:21.634Z,101305.21
2018-01-12T02:06:24.099Z,101304.26
2018-01-12T02:07:26.558Z,101302.77
2018-01-12T02:08:29.056Z,101306.00
2018-01-12T02:09:31.544Z,101297.71
2018-01-12T02:10:34.026Z,101309.23
2018-01-12T02:11:36.490Z,101309.75
2018-01-12T02:12:38.959Z,101309.44
2018-01-12T02:13:41.464Z,101308.03
2018-01-12T02:14:43.936Z,101312.18
2018-01-12T02:15:46.420Z,101314.83
2018-01-12T02:16:48.900Z,101305.89
2018-01-12T02:17:51.380Z,101318.30
2018-01-12T02:18:53.912Z,101313.92
2018-01-12T02:19:56.374Z,101313.33
2018-01-12T02:20:58.834Z,101317.70
2018-01-12T02:22:01.298Z,101318.14
2018-01-12T02:23:03.766Z,101318.26
2018-01-12T02:24:06.260Z,101319.95
2018-01-12T02:25:08.730Z,101319.08
2018-01-12T02:26:11.208Z,101320.39
2018-01-12T02:27:13.686Z,101324.30
2018-01-12T02:28:16.168Z,101320.55
2018-01-12T02:29:18.651Z,101323.62
2018-01-12T02:30:21.126Z,101329.35
2018-01-12T02:31:23.598Z,101327.77
2018-01-12T02:32:26.085Z,101330.33
2018-01-12T02:33:28.564Z,101334.92
2018-01-12T02:34:31.054Z,101334.84
2018-01-12T02:35:33.519Z,101333.91
2018-01-12T02:36:35.981Z,101335.33
2018-01-12T02:37:38.461Z,101334.38
2018-01-12T02:38:40.927Z,101335.37
2018-01-12T02:39:43.402Z,101335.45
2018-01-12T02:40:45.870Z,101333.59
2018-01-12T02:41:48.352Z,101330.46
2018-01-12T02:42:50.813Z,101330.47
2018-01-12T02:43:53.302Z,101332.59
2018-01-12T02:44:55.832Z,101328.84
2018-01-12T02:45:58.297Z,101335.84
2018-01-12T02:47:00.780Z,101335.76
2018-01-12T02:48:03.255Z,101340.11
2018-01-12T02:49:05.765Z,101339.67
2018-01-12T02:50:08.267Z,101341.09
2018-01-12T02:51:10.740Z,101339.72
2018-01-12T02:52:13.220Z,101335.45
2018-01-12T02:53:15.683Z,101336.74
2018-01-12T02:54:18.165Z,101340.48
2018-01-12T02:55:20.674Z,101341.00
2018-01-12T02:56:23.156Z,101336.45
2018-01-12T02:57:25.637Z,101342.23
2018-01-12T02:58:28.106Z,101338.00
2018-01-12T02:59:30.593Z,101334.25
2018-01-12T03:00:33.135Z,101334.80
2018-01-12T03:01:35.603Z,101343.50
2018-01-12T03:02:38.084Z,101334.05
2018-01-12T03:03:40.560Z,101335.75
2018-01-12T03:04:43.045Z,101338.67
2018-01-12T03:05:45.548Z,101339.22
2018-01-12T03:06:48.025Z,101339.53
2018-01-12T03:07:50.512Z,101335.66
2018-01-12T03:08:52.969Z,101340.95
2018-01-12T03:09:55.430Z,101341.73
2018-01-12T03:10:57.924Z,101341.34
2018-01-12T03:12:00.420Z,101347.07
2018-01-12T03:13:02.909Z,101348.58
2018-01-12T03:14:05.373Z,101348.89
2018-01-12T03:15:07.838Z,101344.43
2018-01-12T03:16:10.326Z,101344.61
2018-01-12T03:17:12.808Z,101345.69
2018-01-12T03:18:15.273Z,101341.58
2018-01-12T03:19:17.756Z,101341.58
2018-01-12T03:20:20.236Z,101339.30
2018-01-12T03:21:22.725Z,101342.72
2018-01-12T03:22:25.208Z,101340.48
2018-01-12T03:23:27.693Z,101343.28
2018-01-12T03:24:30.172Z,101343.66
2018-01-12T03:25:32.635Z,101343.77
2018-01-12T03:26:35.139Z,101339.09
2018-01-12T03:27:37.619Z,101341.41
2018-01-12T03:28:40.096Z,101344.98
2018-01-12T03:29:42.562Z,101348.14
2018-01-12T03:30:45.033Z,101348.05
2018-01-12T03:31:47.534Z,101349.35
2018-01-12T03:32:50.010Z,101352.05
2018-01-12T03:33:52.490Z,101351.83
2018-01-12T03:34:54.958Z,101359.23
2018-01-12T03:35:57.448Z,101362.34
2018-01-12T03:36:59.934Z,101363.31
2018-01-12T03:38:02.419Z,101355.03
2018-01-12T03:39:04.900Z,101363.64
2018-01-12T03:40:07.388Z,101359.73
2018-01-12T03:41:09.853Z,101357.69
2018-01-12T03:42:12.355Z,101359.48
2018-01-12T03:43:14.876Z,101358.66
2018-01-12T03:44:17.339Z,101359.99
2018-01-12T03:45:19.820Z,101354.78
2018-01-12T03:46:22.287Z,101355.72
2018-01-12T03:47:24.774Z,101357.95
2018-01-12T03:48:27.253Z,101353.38
2018-01-12T03:49:29.736Z,101358.55
2018-01-12T03:50:32.216Z,101355.64
2018-01-12T03:51:34.703Z,101358.22
2018-01-12T03:52:37.190Z,101356.20
2018-01-12T03:53:39.650Z,101357.23
2018-01-12T03:54:42.117Z,101366.19
2018-01-12T03:55:44.601Z,101361.17
2018-01-12T03:56:47.092Z,101357.51
2018-01-12T03:57:49.570Z,101360.86
2018-01-12T03:58:52.049Z,101358.70
2018-01-12T03:59:54.537Z,101351.06
2018-01-12T04:00:57.041Z,101361.16
2018-01-12T04:01:59.506Z,101361.03
2018-01-12T04:03:02.050Z,101360.90
2018-01-12T04:04:04.528Z,101359.11
2018-01-12T04:05:06.985Z,101355.40
2018-01-12T04:06:09.466Z,101362.47
2018-01-12T04:07:11.950Z,101360.42
2018-01-12T04:08:14.430Z,101359.44
2018-01-12T04:09:16.899Z,101373.27
2018-01-12T04:10:19.364Z,101368.62
2018-01-12T04:11:21.846Z,101366.62
2018-01-12T04:12:24.308Z,101370.03
2018-01-12T04:13:26.840Z,101377.28
2018-01-12T04:14:29.306Z,101372.92
2018-01-12T04:15:31.800Z,101368.69
2018-01-12T04:16:34.262Z,101370.87
2018-01-12T04:17:36.725Z,101374.78
2018-01-12T04:18:39.230Z,101372.02
2018-01-12T04:19:41.720Z,101371.22
2018-01-12T04:20:44.200Z,101375.05
2018-01-12T04:21:46.675Z,101365.86
2018-01-12T04:22:49.142Z,101367.09
2018-01-12T04:23:51.630Z,101371.16
2018-01-12T04:24:54.174Z,101370.25
2018-01-12T04:25:56.724Z,101368.75
2018-01-12T04:26:59.182Z,101372.98
2018-01-12T04:28:01.664Z,101369.42
2018-01-12T04:29:04.150Z,101377.92
2018-01-12T04:30:06.624Z,101376.98
2018-01-12T04:31:09.101Z,101377.84
2018-01-12T04:32:11.566Z,101376.98
2018-01-12T04:33:14.038Z,101379.25
2018-01-12T04:34:16.537Z,101376.75
2018-01-12T04:35:19.028Z,101377.44
2018-01-12T04:36:21.505Z,101379.34
2018-01-12T04:37:23.982Z,101378.47
2018-01-12T04:38:26.452Z,101384.91
2018-01-12T04:39:28.952Z,101373.02
2018-01-12T04:40:31.413Z,101379.08
2018-01-12T04:41:33.887Z,101373.67
2018-01-12T04:42:36.350Z,101380.86
2018-01-12T04:43:38.827Z,101376.58
2018-01-12T04:44:41.328Z,101374.16
2018-01-12T04:45:43.813Z,101377.31
2018-01-12T04:46:46.282Z,101377.56
2018-01-12T04:47:48.774Z,101376.05
2018-01-12T04:48:51.252Z,101375.72
2018-01-12T04:49:53.750Z,101377.27
2018-01-12T04:50:56.210Z,101371.88
2018-01-12T04:51:58.688Z,101375.98
2018-01-12T04:53:01.160Z,101374.81
2018-01-12T04:54:03.626Z,101374.31
2018-01-12T04:55:06.110Z,101369.64
2018-01-12T04:56:08.583Z,101372.03
2018-01-12T04:57:11.068Z,101374.25
2018-01-12T04:58:13.556Z,101375.13
2018-01-12T04:59:16.018Z,101371.77
2018-01-12T05:00:18.510Z,101377.24
2018-01-12T05:01:20.988Z,101374.60
2018-01-12T05:02:23.472Z,101371.45
2018-01-12T05:03:25.961Z,101369.49
2018-01-12T05:04:28.434Z,101374.48
2018-01-12T05:05:30.930Z,101372.47
2018-01-12T05:06:33.485Z,101375.70
2018-01-12T05:07:35.951Z,101372.91
2018-01-12T05:08:38.436Z,101375.75
2018-01-12T05:09:40.910Z,101372.92
2018-01-12T05:10:43.399Z,101370.15
2018-01-12T05:11:45.877Z,101369.88
2018-01-12T05:12:48.339Z,101369.70
2018-01-12T05:13:50.824Z,101366.42
2018-01-12T05:14:53.294Z,101366.32
2018-01-12T05:15:55.805Z,101362.87
2018-01-12T05:16:58.284Z,101370.19
2018-01-12T05:18:00.746Z,101362.23
2018-01-12T05:19:03.230Z,101362.37
2018-01-12T05:20:05.702Z,101367.80
2018-01-12T05:21:08.196Z,101363.37
2018-01-12T05:22:10.663Z,101365.72
2018-01-12T05:23:13.187Z,101369.91
2018-01-12T05:24:15.671Z,101368.94
2018-01-12T05:25:18.161Z,101366.22
2018-01-12T05:26:20.681Z,101378.98
2018-01-12T05:27:23.160Z,101376.42
2018-01-12T05:28:25.632Z,101368.87
2018-01-12T05:29:28.185Z,101370.71
2018-01-12T05:30:30.650Z,101368.09
2018-01-12T05:31:33.139Z,101369.61
2018-01-12T05:32:35.620Z,101374.41
2018-01-12T05:33:38.100Z,101378.74
2018-01-12T05:34:40.588Z,101378.78
2018-01-12T05:35:43.068Z,101381.52
2018-01-12T05:36:45.577Z,101384.16
2018-01-12T05:37:48.050Z,101383.91
2018-01-12T05:38:50.517Z,101385.73
2018-01-12T05:39:53.020Z,101385.04
2018-01-12T05:40:55.487Z,101390.09
2018-01-12T05:41:57.998Z,101387.00
2018-01-12T05:43:00.476Z,101376.28
2018-01-12T05:44:02.942Z,101389.22
2018-01-12T05:45:05.421Z,101389.10
2018-01-12T05:46:07.900Z,101391.34
2018-01-12T05:47:10.400Z,101390.52
2018-01-12T05:48:12.883Z,101395.40
2018-01-12T05:49:15.364Z,101393.30
2018-01-12T05:50:17.826Z,101397.47
2018-01-12T05:51:20.297Z,101396.98
2018-01-12T05:52:22.802Z,101398.91
2018-01-12T05:53:25.290Z,101395.02
2018-01-12T05:54:27.780Z,101397.86
2018-01-12T05:55:30.258Z,101395.16
2018-01-12T05:56:32.744Z,101393.89
2018-01-12T05:57:35.245Z,101394.81
2018-01-12T05:58:37.718Z,101389.27
2018-01-12T05:59:40.241Z,101388.15
2018-01-12T06:00:54.686Z,101397.87
2018-01-12T06:02:08.764Z,101393.80
2018-01-12T06:03:22.958Z,101391.30
2018-01-12T06:04:37.186Z,101390.09
2018-01-12T06:05:51.352Z,101387.76
2018-01-12T06:06:53.856Z,101392.13
2018-01-12T06:07:56.317Z,101389.53
2018-01-12T06:08:58.820Z,101392.98
2018-01-12T06:10:01.294Z,101396.53
2018-01-12T06:11:03.758Z,101399.69
2018-01-12T06:12:06.241Z,101392.76
2018-01-12T06:13:08.758Z,101393.30
2018-01-12T06:14:11.248Z,101399.28
2018-01-12T06:15:13.724Z,101400.98
2018-01-12T06:16:16.191Z,101401.13
2018-01-12T06:17:18.672Z,101403.05
2018-01-12T06:18:21.134Z,101401.78
2018-01-12T06:19:23.618Z,101405.33
2018-01-12T06:20:26.082Z,101407.89
2018-01-12T06:21:28.546Z,101403.96
2018-01-12T06:22:31.010Z,101406.14
2018-01-12T06:23:33.474Z,101401.45
2018-01-12T06:24:35.977Z,101404.76
2018-01-12T06:25:38.438Z,101408.59
2018-01-12T06:26:40.920Z,101408.56
2018-01-12T06:27:43.397Z,101407.07
2018-01-12T06:28:45.876Z,101404.60
2018-01-12T06:29:48.363Z,101409.61
2018-01-12T06:30:50.826Z,101413.06
2018-01-12T06:31:53.298Z,101407.06
2018-01-12T06:32:55.824Z,101412.77
2018-01-12T06:33:58.290Z,101416.53
2018-01-12T06:35:00.784Z,101418.00
2018-01-12T06:36:03.246Z,101419.77
2018-01-12T06:37:05.734Z,101416.17
2018-01-12T06:38:08.724Z,101421.97
2018-01-12T06:39:11.206Z,101429.04
2018-01-12T06:40:13.704Z,101426.84
2018-01-12T06:41:16.170Z,101428.66
2018-01-12T06:42:18.670Z,101429.74
2018-01-12T06:43:21.148Z,101425.53
2018-01-12T06:44:23.614Z,101436.98
2018-01-12T06:45:26.098Z,101431.56
2018-01-12T06:46:28.564Z,101429.74
2018-01-12T06:47:31.045Z,101430.98
2018-01-12T06:48:33.524Z,101439.14
2018-01-12T06:49:36.061Z,101436.80
2018-01-12T06:50:38.701Z,101434.14
2018-01-12T06:51:41.178Z,101437.55
2018-01-12T06:52:43.656Z,101437.23
2018-01-12T06:53:46.132Z,101442.25
2018-01-12T06:54:48.608Z,101442.55
2018-01-12T06:55:51.128Z,101444.70
2018-01-12T06:56:53.601Z,101444.82
2018-01-12T06:57:56.145Z,101438.39
2018-01-12T06:58:58.610Z,101452.90
2018-01-12T07:00:01.092Z,101448.05
2018-01-12T07:01:03.585Z,101452.02
2018-01-12T07:02:06.052Z,101452.48
2018-01-12T07:03:08.526Z,101455.05
2018-01-12T07:04:11.004Z,101458.86
2018-01-12T07:05:13.480Z,101455.25
2018-01-12T07:06:16.014Z,101452.65
2018-01-12T07:07:18.476Z,101459.30
2018-01-12T07:08:20.951Z,101459.02
2018-01-12T07:09:23.413Z,101459.48
2018-01-12T07:10:25.878Z,101459.30
2018-01-12T07:11:28.396Z,101461.17
2018-01-12T07:12:30.858Z,101459.03
2018-01-12T07:13:33.319Z,101462.75
2018-01-12T07:14:35.830Z,101457.91
2018-01-12T07:15:38.295Z,101464.53
2018-01-12T07:16:40.813Z,101466.59
2018-01-12T07:17:43.295Z,101465.09
2018-01-12T07:18:45.759Z,101464.58
2018-01-12T07:19:48.230Z,101461.19
2018-01-12T07:21:02.620Z,101466.98
2018-01-12T07:22:16.907Z,101469.88
2018-01-12T07:23:31.421Z,101469.38
2018-01-12T07:24:33.888Z,101466.50
2018-01-12T07:25:36.356Z,101470.41
2018-01-12T07:26:38.838Z,101474.95
2018-01-12T07:27:41.355Z,101476.46
2018-01-12T07:28:43.832Z,101474.33
2018-01-12T07:29:46.298Z,101477.23
2018-01-12T07:30:48.780Z,101476.42
2018-01-12T07:31:51.255Z,101475.02
2018-01-12T07:32:53.746Z,101475.95
2018-01-12T07:33:56.236Z,101477.33
2018-01-12T07:34:58.723Z,101477.77
2018-01-12T07:36:01.186Z,101475.19
2018-01-12T07:37:03.665Z,101478.61
2018-01-12T07:38:06.177Z,101480.89
2018-01-12T07:39:08.652Z,101482.02
2018-01-12T07:40:11.140Z,101480.48
2018-01-12T07:41:13.623Z,101484.72
2018-01-12T07:42:16.090Z,101484.77
2018-01-12T07:43:18.583Z,101486.81
2018-01-12T07:44:21.085Z,101480.18
2018-01-12T07:45:23.572Z,101478.48
2018-01-12T07:46:26.034Z,101481.50
2018-01-12T07:47:28.536Z,101482.13
2018-01-12T07:48:31.036Z,101486.42
2018-01-12T07:49:33.850Z,101484.55
2018-01-12T07:50:36.350Z,101478.83
2018-01-12T07:51:38.827Z,101486.09
2018-01-12T07:52:46.974Z,101485.30
2018-01-12T07:53:49.476Z,101487.74
2018-01-12T07:54:51.950Z,101483.91
2018-01-12T07:55:54.426Z,101483.00
2018-01-12T07:56:56.925Z,101483.28
2018-01-12T07:57:59.398Z,101484.17
2018-01-12T07:59:01.894Z,101482.28
2018-01-12T08:00:04.364Z,101484.98
2018-01-12T08:01:12.450Z,101491.68
2018-01-12T08:02:20.544Z,101489.00
2018-01-12T08:03:23.024Z,101492.20
2018-01-12T08:04:25.524Z,101496.42
2018-01-12T08:05:28.004Z,101496.42
2018-01-12T08:06:30.503Z,101502.50
2018-01-12T08:07:32.980Z,101499.95
2018-01-12T08:08:35.460Z,101497.42
2018-01-12T08:09:37.942Z,101499.95
2018-01-12T08:10:40.415Z,101502.47
2018-01-12T08:11:42.874Z,101503.59
2018-01-12T08:12:45.351Z,101500.45
2018-01-12T08:13:47.820Z,101507.95
2018-01-12T08:14:50.306Z,101512.38
2018-01-12T08:15:52.770Z,101509.80
2018-01-12T08:16:55.298Z,101514.64
2018-01-12T08:17:57.794Z,101513.94
2018-01-12T08:19:00.273Z,101518.56
2018-01-12T08:20:02.773Z,101519.45
2018-01-12T08:21:05.248Z,101521.23
2018-01-12T08:22:07.706Z,101523.98
2018-01-12T08:23:10.167Z,101524.34
2018-01-12T08:24:12.648Z,101523.50
2018-01-12T08:25:15.125Z,101526.09
2018-01-12T08:26:17.588Z,101531.16
2018-01-12T08:27:20.050Z,101530.48
2018-01-12T08:28:22.513Z,101530.95
2018-01-12T08:29:25.032Z,101530.53
2018-01-12T08:30:27.513Z,101529.94
2018-01-12T08:31:29.987Z,101530.83
2018-01-12T08:32:32.465Z,101531.11
2018-01-12T08:33:34.944Z,101529.40
2018-01-12T08:34:37.426Z,101534.05
2018-01-12T08:35:39.915Z,101535.54
2018-01-12T08:36:42.388Z,101539.77
2018-01-12T08:37:44.901Z,101536.31
2018-01-12T08:38:47.394Z,101542.22
2018-01-12T08:39:49.880Z,101540.80
2018-01-12T08:40:52.361Z,101541.56
2018-01-12T08:41:54.846Z,101543.09
2018-01-12T08:42:57.321Z,101540.51
2018-01-12T08:43:59.788Z,101544.42
2018-01-12T08:45:02.249Z,101548.65
2018-01-12T08:46:04.725Z,101553.73
2018-01-12T08:47:07.292Z,101550.02
2018-01-12T08:48:09.768Z,101547.64
2018-01-12T08:49:12.254Z,101539.45
2018-01-12T08:50:14.752Z,101543.06
2018-01-12T08:51:17.240Z,101543.95
2018-01-12T08:52:19.716Z,101553.47
2018-01-12T08:53:22.204Z,101548.59
2018-01-12T08:54:24.687Z,101553.40
2018-01-12T08:55:27.169Z,101550.97
2018-01-12T08:56:29.658Z,101553.00
2018-01-12T08:57:32.145Z,101548.12
2018-01-12T08:58:34.628Z,101552.79
2018-01-12T08:59:37.110Z,101553.09
2018-01-12T09:00:39.574Z,101555.69
2018-01-12T09:01:42.070Z,101549.25
2018-01-12T09:02:44.602Z,101559.19
2018-01-12T09:03:47.070Z,101544.30
2018-01-12T09:04:49.531Z,101561.80
2018-01-12T09:05:52.007Z,101561.08
2018-01-12T09:06:54.596Z,101561.82
2018-01-12T09:07:57.064Z,101564.80
2018-01-12T09:08:59.540Z,101564.19
2018-01-12T09:10:02.022Z,101557.40
2018-01-12T09:11:04.487Z,101564.34
2018-01-12T09:12:06.971Z,101567.82
2018-01-12T09:13:21.219Z,101560.11
2018-01-12T09:14:35.391Z,101561.10
2018-01-12T09:15:37.858Z,101561.44
2018-01-12T09:16:40.398Z,101563.16
2018-01-12T09:17:48.766Z,101570.56
2018-01-12T09:19:03.105Z,101563.20
2018-01-12T09:20:16.290Z,101567.24
2018-01-12T09:21:25.225Z,101564.81
2018-01-12T09:22:28.457Z,101568.25
2018-01-12T09:23:32.060Z,101568.18
2018-01-12T09:24:34.526Z,101573.98
2018-01-12T09:25:37.403Z,101570.39
2018-01-12T09:26:39.866Z,101576.64
2018-01-12T09:27:42.329Z,101576.98
2018-01-12T09:28:44.819Z,101572.70
2018-01-12T09:29:47.286Z,101576.05
2018-01-12T09:30:49.809Z,101571.95
2018-01-12T09:31:52.264Z,101582.73
2018-01-12T09:32:54.756Z,101581.44
2018-01-12T09:33:57.214Z,101572.90
2018-01-12T09:35:00.663Z,101575.45
2018-01-12T09:36:03.149Z,101578.05
2018-01-12T09:37:05.611Z,101578.97
2018-01-12T09:38:20.003Z,101582.09
2018-01-12T09:39:34.149Z,101579.09
2018-01-12T09:40:47.814Z,101584.28
2018-01-12T09:41:50.281Z,101591.08
2018-01-12T09:42:52.741Z,101584.12
2018-01-12T09:43:55.218Z,101585.82
2018-01-12T09:44:57.703Z,101583.30
2018-01-12T09:46:00.213Z,101580.77
2018-01-12T09:47:14.617Z,101586.68
2018-01-12T09:48:37.978Z,101585.32
2018-01-12T09:49:50.315Z,101584.91
2018-01-12T09:50:52.778Z,101589.06
2018-01-12T09:51:55.238Z,101585.29
2018-01-12T09:52:57.722Z,101581.96
2018-01-12T09:54:00.209Z,101593.47
2018-01-12T09:55:02.696Z,101593.28
2018-01-12T09:56:05.208Z,101586.64
2018-01-12T09:57:07.656Z,101583.98
2018-01-12T09:58:10.119Z,101590.04
2018-01-12T09:59:12.600Z,101588.27
2018-01-12T10:00:23.878Z,101592.63
2018-01-12T10:01:26.352Z,101587.21
2018-01-12T10:02:28.817Z,101591.36
2018-01-12T10:03:31.314Z,101588.16
2018-01-12T10:04:33.783Z,101590.42
2018-01-12T10:05:36.329Z,101588.20
2018-01-12T10:06:38.812Z,101592.88
2018-01-12T10:07:50.058Z,101592.44
2018-01-12T10:08:59.356Z,101592.82
2018-01-12T10:10:11.752Z,101592.00
2018-01-12T10:11:14.213Z,101593.95
2018-01-12T10:12:16.691Z,101594.52
2018-01-12T10:13:19.176Z,101599.08
2018-01-12T10:14:21.694Z,101597.39
2018-01-12T10:15:24.181Z,101595.54
2018-01-12T10:16:26.659Z,101585.73
2018-01-12T10:17:29.126Z,101598.00
2018-01-12T10:18:35.599Z,101591.89
2018-01-12T10:19:43.834Z,101591.69
2018-01-12T10:20:46.335Z,101597.44
2018-01-12T10:21:48.827Z,101592.63
2018-01-12T10:22:51.304Z,101593.86
2018-01-12T10:23:53.830Z,101592.66
2018-01-12T10:24:56.315Z,101595.59
2018-01-12T10:25:58.791Z,101591.12
2018-01-12T10:27:01.267Z,101596.10
2018-01-12T10:28:03.748Z,101596.03
2018-01-12T10:29:06.979Z,101593.58
2018-01-12T10:30:21.396Z,101583.09
2018-01-12T10:31:35.703Z,101592.06
2018-01-12T10:32:44.169Z,101598.69
2018-01-12T10:33:58.608Z,101594.83
2018-01-12T10:35:12.971Z,101591.77
2018-01-12T10:36:21.228Z,101592.38
2018-01-12T10:37:23.730Z,101597.62
2018-01-12T10:38:26.185Z,101595.47
2018-01-12T10:39:28.664Z,101590.29
2018-01-12T10:40:41.847Z,101595.58
2018-01-12T10:41:56.061Z,101592.13
2018-01-12T10:42:58.578Z,101587.73
2018-01-12T10:44:01.056Z,101592.05
2018-01-12T10:45:03.521Z,101589.40
2018-01-12T10:46:17.720Z,101593.37
2018-01-12T10:47:26.200Z,101586.56
2018-01-12T10:51:38.672Z,101587.91
2018-01-12T10:52:50.049Z,101581.41
2018-01-12T10:53:52.554Z,101585.64
2018-01-12T10:54:55.018Z,101585.57
2018-01-12T10:55:57.477Z,101591.23
2018-01-12T10:56:59.937Z,101586.91
2018-01-12T10:58:02.416Z,101583.01
2018-01-12T10:59:04.879Z,101582.73
2018-01-12T11:00:07.355Z,101584.28
2018-01-12T11:01:09.815Z,101579.86
2018-01-12T11:02:12.295Z,101582.00
2018-01-12T11:03:14.771Z,101582.06
2018-01-12T11:04:17.247Z,101584.04
2018-01-12T11:05:19.710Z,101580.18
2018-01-12T11:06:22.169Z,101583.77
2018-01-12T11:07:24.646Z,101580.69
2018-01-12T11:08:27.213Z,101579.47
2018-01-12T11:09:29.674Z,101575.53
2018-01-12T11:10:32.151Z,101578.97
2018-01-12T11:11:34.617Z,101581.03
2018-01-12T11:12:37.082Z,101578.84
2018-01-12T11:13:39.568Z,101581.89
2018-01-12T11:14:42.044Z,101584.82
2018-01-12T11:15:44.525Z,101579.77
2018-01-12T11:16:46.997Z,101577.61
2018-01-12T11:17:49.566Z,101576.05
2018-01-12T11:18:52.030Z,101579.86
2018-01-12T11:19:54.579Z,101577.84
2018-01-12T11:20:57.044Z,101582.98
2018-01-12T11:21:59.595Z,101578.73
2018-01-12T11:23:02.072Z,101575.95
2018-01-12T11:24:04.533Z,101575.31
2018-01-12T11:25:06.989Z,101575.21
2018-01-12T11:26:09.450Z,101571.98
2018-01-12T11:27:11.913Z,101569.16
2018-01-12T11:28:14.382Z,101568.98
2018-01-12T11:29:16.861Z,101572.13
2018-01-12T11:30:19.365Z,101568.58
2018-01-12T11:31:21.859Z,101569.57
2018-01-12T11:32:24.348Z,101568.16
2018-01-12T11:33:26.820Z,101565.37
2018-01-12T11:34:29.303Z,101563.59
2018-01-12T11:35:31.811Z,101567.30
2018-01-12T11:36:34.296Z,101567.97
2018-01-12T11:37:36.796Z,101567.89
2018-01-12T11:38:39.266Z,101563.82
2018-01-12T11:39:41.729Z,101567.05
2018-01-12T11:40:44.193Z,101568.91
2018-01-12T11:41:46.672Z,101566.21
2018-01-12T11:42:49.163Z,101564.75
2018-01-12T11:43:51.725Z,101562.67
2018-01-12T11:44:54.287Z,101565.52
2018-01-12T11:45:56.751Z,101566.35
2018-01-12T11:46:59.228Z,101565.80
2018-01-12T11:48:01.807Z,101566.11
2018-01-12T11:49:04.358Z,101568.14
2018-01-12T11:50:06.833Z,101570.75
2018-01-12T11:51:09.318Z,101567.72
2018-01-12T11:52:11.778Z,101564.81
2018-01-12T11:53:14.299Z,101561.77
2018-01-12T11:54:16.770Z,101564.84
2018-01-12T11:55:19.249Z,101567.06
2018-01-12T11:56:21.735Z,101566.27
2018-01-12T11:57:24.216Z,101567.59
2018-01-12T11:58:26.687Z,101563.34
2018-01-12T11:59:29.155Z,101554.75
2018-01-12T12:00:31.618Z,101559.42
2018-01-12T12:01:34.085Z,101563.56
2018-01-12T12:02:36.560Z,101557.25